Churubusco, IN (46723)

10:55 AM EST on December 29, 2014 (GMT -0500)
N.W. Allen County | Change Station
CLOSE
Current Station
Personal Weather Station
Location: Churubusco, IN
Elevation: 870 ft
Nearby Weather Stations

Elev 870 ft 41.24 °N, 85.25 °W | Updated 1 minute ago

Overcast
Overcast
29.9 °F
Feels Like 30 °F
N
2.0
Wind Variable Wind from NNE
Gusts 3.4 mph

Today
High -- | Low -- °F
--% Chance of Precip.
Yesterday
High -- | Low -- °F
Precip. -- in
8:06 AM 5:20 PM
First Quarter, 60% visible
Pressure 30.34 in
Visibility 5.0 miles
Clouds Overcast 3700 ft
Windchill 30 °F
Dew Point 27 °F
Humidity 88%
Rainfall 0.00 in
Snow Depth Not available.
UV 0 out of 12
Pollen .10 out of 12
Air Quality Not available.
Flu Activity Not available.
METAR KGWB 291535Z AUTO 00000KT 5SM BR OVC037 M02/M03 A3034 RMK AO2

More Conditions Fewer Conditions

Pressure 30.34 in
Visibility 5.0 miles
Clouds Overcast 3700 ft
Windchill 30 °F
Dew Point 27 °F
Humidity 88%
Rainfall 0.00 in
Snow Depth Not available.
UV 0 out of 12
Pollen .10 out of 12
Air Quality Not available.
Flu Activity Not available.
METAR KGWB 291535Z AUTO 00000KT 5SM BR OVC037 M02/M03 A3034 RMK AO2

More Conditions Fewer Conditions

10-Day Weather Forecast

Almanac

Astronomy

Dec. 29, 2014 Rise Set
Actual Time
Civil Twilight
Nautical Twilight
Astronomical Twilight
Moon
Length of Visible Light
Length of Day
Tomorrow will be .
, % of the Moon is Illuminated

Today's Extremes

State Highs State Lows

Community

WunderPhotos

Upload Photos

1,781,617 photos uploaded!

WunderBlogs® & News

Nearby

Air Quality

  Air Quality AQ Index Pollutant
Not available.

Snow Depth

Station Depth Elevation

Earthquake Activity

City Distance Mag. Time & Date
Minimum magnitude displayed is 2.5.

Coastal Water Temperatures

Place Temperature

Nearby Weather Stations